Time;durP1;ratioP1;P1;durP2;ratioP2;P2;SDS_P1;SDS_P2;PMS_P1;PMS_P2;Temp;Humidity;BMP_temperature;BMP_pressure;BME280_temperature;BME280_humidity;BME280_pressure;Samples;Min_cycle;Max_cycle;Signal;HPM_P1;HPM_P2
2021/11/03 00:01:21;;;;;;;28.77;17.88;;;;;;;4.73;100.00;99490.34;5114617;28;20118;-76
2021/11/03 00:03:51;;;;;;;30.65;17.40;;;;;;;4.68;100.00;99496.78;5115395;28;20043;-77
2021/11/03 00:06:22;;;;;;;29.65;17.75;;;;;;;4.66;100.00;99501.28;5115297;28;20043;-77
2021/11/03 00:08:52;;;;;;;29.05;17.73;;;;;;;4.67;100.00;99510.91;5115058;28;20036;-75
2021/11/03 00:11:21;;;;;;;30.70;17.02;;;;;;;4.63;100.00;99522.53;5115163;28;20439;-76
2021/11/03 00:13:50;;;;;;;29.08;18.23;;;;;;;4.58;100.00;99525.41;5115127;28;20453;-76
2021/11/03 00:16:19;;;;;;;30.70;18.10;;;;;;;4.55;100.00;99529.06;5115681;28;20369;-76
2021/11/03 00:18:47;;;;;;;29.55;17.83;;;;;;;4.51;100.00;99524.81;5115547;28;20129;-77
2021/11/03 00:21:16;;;;;;;27.52;17.20;;;;;;;4.49;100.00;99534.63;5114988;28;20051;-76
2021/11/03 00:23:45;;;;;;;27.90;16.95;;;;;;;4.48;100.00;99540.81;5114770;28;20432;-76
2021/11/03 00:26:15;;;;;;;28.92;16.70;;;;;;;4.47;100.00;99541.75;5115024;28;20472;-76
2021/11/03 00:28:43;;;;;;;27.63;16.80;;;;;;;4.47;100.00;99544.41;5114855;28;20074;-75
2021/11/03 00:31:12;;;;;;;26.85;16.50;;;;;;;4.51;100.00;99545.09;5114810;28;20054;-74
2021/11/03 00:33:41;;;;;;;27.58;16.38;;;;;;;4.53;100.00;99552.00;5114329;28;20101;-75
2021/11/03 00:36:09;;;;;;;26.92;15.63;;;;;;;4.49;100.00;99550.47;5114937;28;20097;-76
2021/11/03 00:38:38;;;;;;;27.25;16.30;;;;;;;4.49;100.00;99550.47;5114719;28;20050;-75
2021/11/03 00:41:07;;;;;;;28.73;16.95;;;;;;;4.46;100.00;99545.34;5115091;28;20549;-75
2021/11/03 00:43:37;;;;;;;27.90;16.73;;;;;;;4.40;100.00;99545.59;5114645;28;20043;-75
2021/11/03 00:46:05;;;;;;;26.60;15.32;;;;;;;4.38;100.00;99539.53;5096534;28;20431;-76
2021/11/03 00:48:34;;;;;;;25.67;15.52;;;;;;;4.46;100.00;99536.56;5114727;28;20047;-76
2021/11/03 00:51:03;;;;;;;26.30;16.00;;;;;;;4.56;100.00;99541.34;5114735;28;20067;-75
2021/11/03 00:53:33;;;;;;;26.52;15.75;;;;;;;4.50;100.00;99554.81;5114207;28;20043;-75
2021/11/03 00:56:01;;;;;;;27.30;16.73;;;;;;;4.44;100.00;99557.75;5114368;28;20042;-76
2021/11/03 00:58:30;;;;;;;24.73;14.95;;;;;;;4.46;100.00;99566.47;5114536;28;20043;-80
2021/11/03 01:01:00;;;;;;;27.10;16.48;;;;;;;4.45;100.00;99564.75;5114071;28;20043;-75
2021/11/03 01:03:30;;;;;;;28.40;16.65;;;;;;;4.40;100.00;99566.72;5114005;28;20063;-80
2021/11/03 01:05:58;;;;;;;29.95;17.08;;;;;;;4.35;100.00;99565.25;5114117;28;20146;-75
2021/11/03 01:08:27;;;;;;;30.33;17.75;;;;;;;4.38;100.00;99567.72;5114236;28;20050;-75
2021/11/03 01:10:55;;;;;;;29.33;17.05;;;;;;;4.46;100.00;99566.47;5113578;28;20036;-75
2021/11/03 01:13:25;;;;;;;29.30;17.35;;;;;;;4.46;100.00;99563.81;5113867;28;20112;-75
2021/11/03 01:15:57;;;;;;;32.15;17.95;;;;;;;4.44;100.00;99564.78;5113977;28;20073;-75
2021/11/03 01:18:29;;;;;;;27.08;17.10;;;;;;;4.38;100.00;99565.94;5095756;28;20392;-75
2021/11/03 01:20:59;;;;;;;28.48;16.80;;;;;;;4.39;100.00;99572.94;5095872;28;20058;-76
2021/11/03 01:23:31;;;;;;;28.33;15.90;;;;;;;4.38;100.00;99576.50;5114243;28;20062;-76
2021/11/03 01:26:00;;;;;;;25.95;15.48;;;;;;;4.40;100.00;99582.56;5114128;28;20039;-75
2021/11/03 01:28:29;;;;;;;26.60;15.15;;;;;;;4.38;100.00;99595.00;5114112;28;20048;-75
2021/11/03 01:30:57;;;;;;;24.98;15.25;;;;;;;4.54;100.00;99592.53;5113384;28;20043;-75
2021/11/03 01:33:27;;;;;;;25.27;15.52;;;;;;;4.49;100.00;99599.78;5113564;28;20354;-75
2021/11/03 01:35:55;;;;;;;26.05;15.45;;;;;;;4.34;100.00;99598.69;5113566;28;20096;-74
2021/11/03 01:38:23;;;;;;;27.00;15.00;;;;;;;4.26;100.00;99593.78;5113690;28;20100;-75
2021/11/03 01:40:52;;;;;;;26.90;14.93;;;;;;;4.34;100.00;99585.47;5095049;28;20508;-75
2021/11/03 01:43:36;;;;;;;28.33;15.82;;;;;;;4.32;100.00;99584.69;5113479;28;20045;-76
2021/11/03 01:46:22;;;;;;;28.77;15.48;;;;;;;4.21;100.00;99586.97;5113397;28;20046;-76
2021/11/03 01:48:56;;;;;;;32.17;15.07;;;;;;;4.12;100.00;99596.16;5113577;28;20050;-76
2021/11/03 01:51:31;;;;;;;30.67;15.95;;;;;;;4.15;100.00;99589.88;5113858;28;20032;-76
2021/11/03 01:54:01;;;;;;;27.58;15.63;;;;;;;4.17;100.00;99591.53;5113529;28;20047;-76
2021/11/03 01:56:31;;;;;;;26.52;15.63;;;;;;;4.17;100.00;99595.97;5113684;28;20094;-77
2021/11/03 01:59:03;;;;;;;27.58;16.80;;;;;;;4.02;100.00;99593.06;5113889;28;20127;-77
2021/11/03 02:01:32;;;;;;;29.90;16.77;;;;;;;4.15;100.00;99590.75;5113766;28;20051;-77
2021/11/03 02:04:02;;;;;;;31.98;17.60;;;;;;;4.19;100.00;99589.69;5094883;28;20584;-78
2021/11/03 02:06:30;;;;;;;32.38;17.25;;;;;;;4.18;100.00;99589.75;5113092;28;20526;-75
2021/11/03 02:08:59;;;;;;;29.52;16.20;;;;;;;4.15;100.00;99588.13;5112520;28;20071;-75
2021/11/03 02:11:30;;;;;;;31.30;16.33;;;;;;;4.08;100.00;99591.94;5113017;28;20096;-75
2021/11/03 02:14:02;;;;;;;29.63;16.83;;;;;;;4.12;100.00;99579.47;5112656;28;20036;-75
2021/11/03 02:16:33;;;;;;;27.52;17.15;;;;;;;4.22;100.00;99583.41;5112661;28;20073;-75
2021/11/03 02:19:09;;;;;;;29.02;16.83;;;;;;;4.20;100.00;99587.91;5113321;28;20449;-75
2021/11/03 02:21:52;;;;;;;29.83;15.90;;;;;;;4.25;100.00;99578.00;5112742;28;20074;-76
2021/11/03 02:24:27;;;;;;;26.52;14.95;;;;;;;4.23;100.00;99582.47;5112259;28;20040;-76
2021/11/03 02:27:00;;;;;;;27.45;16.13;;;;;;;4.16;100.00;99591.59;5112331;28;20047;-76
2021/11/03 02:29:28;;;;;;;25.38;14.27;;;;;;;4.09;100.00;99595.44;5112826;28;20036;-76
2021/11/03 02:32:11;;;;;;;26.13;14.70;;;;;;;4.09;100.00;99592.81;5112244;28;20047;-76
2021/11/03 02:34:39;;;;;;;27.37;16.33;;;;;;;3.91;100.00;99591.81;5112356;28;20042;-76
2021/11/03 02:37:49;;;;;;;33.25;16.63;;;;;;;3.92;100.00;99597.03;5112794;28;20069;-76
2021/11/03 02:40:46;;;;;;;27.13;16.27;;;;;;;3.80;100.00;99587.00;5076293;28;20047;-76
2021/11/03 02:43:21;;;;;;;27.67;17.38;;;;;;;3.74;100.00;99593.38;5112495;28;20392;-76
2021/11/03 02:45:53;;;;;;;29.35;16.58;;;;;;;3.69;100.00;99597.16;5112274;28;20043;-76
2021/11/03 02:48:24;;;;;;;30.20;17.23;;;;;;;3.66;100.00;99606.03;5112753;28;20460;-77
2021/11/03 02:51:10;;;;;;;31.40;17.58;;;;;;;3.73;100.00;99607.50;5111911;28;20036;-77
2021/11/03 02:53:41;;;;;;;27.42;15.13;;;;;;;3.82;100.00;99600.13;5112230;28;20043;-80
2021/11/03 02:56:10;;;;;;;26.42;15.77;;;;;;;3.91;100.00;99605.88;5112622;28;20043;-77
2021/11/03 02:58:40;;;;;;;28.17;16.13;;;;;;;3.81;100.00;99599.28;5112633;28;20035;-78
2021/11/03 03:01:16;;;;;;;33.25;16.38;;;;;;;3.78;100.00;99607.31;5111938;28;20043;-76
2021/11/03 03:03:46;;;;;;;30.65;15.27;;;;;;;3.81;100.00;99601.91;5111865;28;20126;-77
2021/11/03 03:06:21;;;;;;;38.90;15.48;;;;;;;3.66;100.00;99615.72;5112106;28;20044;-74
2021/11/03 03:08:52;;;;;;;42.33;15.60;;;;;;;3.73;100.00;99620.69;5111706;28;20058;-76
2021/11/03 03:11:21;;;;;;;39.17;16.35;;;;;;;3.72;100.00;99616.34;5093793;28;20052;-76
2021/11/03 03:13:53;;;;;;;42.97;16.85;;;;;;;3.70;100.00;99612.06;5111842;28;20044;-79
2021/11/03 03:16:22;;;;;;;57.60;17.55;;;;;;;3.54;100.00;99616.25;5111983;28;20054;-78
2021/11/03 03:18:51;;;;;;;72.70;17.55;;;;;;;3.41;100.00;99610.63;5111686;28;20108;-77
2021/11/03 03:21:24;;;;;;;54.00;17.13;;;;;;;3.43;100.00;99617.56;5111656;28;20047;-78
2021/11/03 03:23:56;;;;;;;61.28;16.55;;;;;;;3.42;100.00;99622.91;5111567;28;20043;-79
2021/11/03 03:26:25;;;;;;;55.70;15.38;;;;;;;3.41;100.00;99619.41;5111667;28;20489;-78
2021/11/03 03:28:55;;;;;;;53.78;16.27;;;;;;;3.51;100.00;99622.53;5111671;28;20039;-78
2021/11/03 03:31:28;;;;;;;49.23;15.33;;;;;;;3.61;100.00;99623.84;5112463;28;20036;-78
2021/11/03 03:33:59;;;;;;;49.00;14.48;;;;;;;3.65;100.00;99625.44;5112094;28;20378;-78
2021/11/03 03:36:29;;;;;;;46.80;14.15;;;;;;;3.79;100.00;99635.41;5116016;28;20058;-78
2021/11/03 03:38:58;;;;;;;40.85;13.52;;;;;;;3.67;100.00;99641.22;5115687;28;20036;-78
2021/11/03 03:41:28;;;;;;;50.53;14.68;;;;;;;3.62;100.00;99635.25;5115759;28;20422;-78
2021/11/03 03:43:58;;;;;;;52.83;13.88;;;;;;;3.64;100.00;99638.69;5115744;28;20040;-78
2021/11/03 03:46:27;;;;;;;54.58;14.25;;;;;;;3.71;100.00;99641.00;5115772;28;20135;-78
2021/11/03 03:48:55;;;;;;;47.90;12.90;;;;;;;3.83;100.00;99639.63;5096935;28;20070;-75
2021/11/03 03:51:24;;;;;;;35.58;13.15;;;;;;;3.87;100.00;99643.88;5115953;28;20039;-77
2021/11/03 03:53:54;;;;;;;44.83;12.27;;;;;;;3.87;100.00;99648.28;5097413;28;20345;-75
2021/11/03 03:56:24;;;;;;;42.03;12.38;;;;;;;3.74;100.00;99648.78;5115787;28;20154;-75
2021/11/03 03:58:52;;;;;;;53.83;13.02;;;;;;;3.69;100.00;99628.81;5115301;28;20040;-75
2021/11/03 04:01:25;;;;;;;43.33;13.55;;;;;;;3.81;100.00;99638.84;5115647;28;20044;-75
2021/11/03 04:03:56;;;;;;;33.45;12.50;;;;;;;3.71;100.00;99640.16;5115312;28;20124;-77
2021/11/03 04:06:25;;;;;;;24.92;11.88;;;;;;;3.83;100.00;99647.53;5115501;28;20051;-77
2021/11/03 04:08:53;;;;;;;32.45;12.43;;;;;;;3.77;100.00;99649.59;5114895;28;20040;-77
2021/11/03 04:11:21;;;;;;;39.55;12.40;;;;;;;3.85;100.00;99653.59;5115671;28;20381;-75
2021/11/03 04:13:50;;;;;;;46.08;12.85;;;;;;;3.83;100.00;99651.97;5114986;28;20046;-76
2021/11/03 04:16:18;;;;;;;37.97;12.75;;;;;;;3.78;100.00;99649.53;5115228;28;20075;-74
2021/11/03 04:18:48;;;;;;;39.50;12.93;;;;;;;3.84;100.00;99646.63;5115221;28;20051;-77
2021/11/03 04:21:20;;;;;;;;;;;;;;;3.78;100.00;99644.25;5115620;28;20031;-76
2021/11/03 04:23:49;;;;;;;38.00;12.90;;;;;;;3.72;100.00;99652.41;5114942;28;20021;-76
2021/11/03 04:26:27;;;;;;;53.72;13.32;;;;;;;3.74;100.00;99659.34;5097048;28;20054;-76
2021/11/03 04:28:55;;;;;;;59.35;13.98;;;;;;;3.74;100.00;99664.59;5114791;28;20123;-77
2021/11/03 04:31:24;;;;;;;50.92;13.27;;;;;;;3.80;100.00;99667.94;5115536;28;20464;-76
2021/11/03 04:33:54;;;;;;;62.30;13.35;;;;;;;3.82;100.00;99659.03;5114754;28;20058;-77
2021/11/03 04:36:24;;;;;;;66.25;14.13;;;;;;;3.78;100.00;99657.44;5115212;28;20039;-78
2021/11/03 04:38:55;;;;;;;77.05;13.85;;;;;;;3.80;100.00;99660.88;5114870;28;20039;-79
2021/11/03 04:41:24;;;;;;;71.90;14.35;;;;;;;3.82;100.00;99653.75;5114719;28;20495;-76
2021/11/03 04:43:52;;;;;;;58.47;13.50;;;;;;;3.86;100.00;99671.19;5114341;28;20399;-76
2021/11/03 04:46:20;;;;;;;54.13;13.68;;;;;;;3.93;100.00;99677.91;5114049;28;20061;-76
2021/11/03 04:48:49;;;;;;;38.85;13.68;;;;;;;3.97;100.00;99668.94;5113870;28;20044;-74
2021/11/03 04:51:19;;;;;;;53.50;14.13;;;;;;;3.98;100.00;99675.94;5114688;28;20069;-74
2021/11/03 04:53:47;;;;;;;52.72;13.18;;;;;;;3.91;100.00;99685.03;5114180;28;20443;-78
2021/11/03 04:56:19;;;;;;;44.85;14.15;;;;;;;3.95;100.00;99691.00;5114499;28;20040;-74
2021/11/03 04:58:51;;;;;;;54.78;14.07;;;;;;;4.01;100.00;99702.19;5114450;28;20047;-78
2021/11/03 05:01:22;;;;;;;38.70;12.98;;;;;;;4.08;100.00;99696.66;5114404;28;20043;-74
2021/11/03 05:03:52;;;;;;;41.40;12.82;;;;;;;4.14;100.00;99685.81;5114177;28;20036;-74
2021/11/03 05:06:26;;;;;;;36.45;13.82;;;;;;;4.24;100.00;99698.56;5114585;28;20040;-79
2021/11/03 05:08:55;;;;;;;35.80;13.65;;;;;;;4.27;100.00;99706.38;5114222;28;20056;-78
2021/11/03 05:11:24;;;;;;;57.00;15.10;;;;;;;4.29;100.00;99690.44;5096209;28;20052;-76
2021/11/03 05:13:53;;;;;;;73.97;14.38;;;;;;;4.35;100.00;99690.19;5113977;28;20043;-76
2021/11/03 05:16:24;;;;;;;70.93;14.88;;;;;;;4.37;100.00;99698.91;5114066;28;20112;-75
2021/11/03 05:18:53;;;;;;;61.30;14.98;;;;;;;4.40;100.00;99706.69;5114082;28;20055;-75
2021/11/03 05:21:23;;;;;;;53.13;14.93;;;;;;;4.44;100.00;99702.13;5113681;28;20055;-74
2021/11/03 05:23:52;;;;;;;64.55;14.63;;;;;;;4.48;100.00;99701.06;5113600;28;20126;-74
2021/11/03 05:26:22;;;;;;;72.35;14.82;;;;;;;4.54;100.00;99701.66;5095412;28;20059;-76
2021/11/03 05:28:59;;;;;;;73.25;15.63;;;;;;;4.63;100.00;99704.81;5113556;28;20039;-76
2021/11/03 05:31:29;;;;;;;44.38;15.73;;;;;;;4.59;100.00;99701.44;5114487;28;20055;-75
2021/11/03 05:33:58;;;;;;;51.13;15.32;;;;;;;4.71;100.00;99710.59;5113681;28;20042;-76
2021/11/03 05:36:30;;;;;;;45.28;15.25;;;;;;;4.71;100.00;99718.53;5113745;28;20090;-76
2021/11/03 05:39:06;;;;;;;71.30;15.77;;;;;;;4.68;100.00;99713.41;5113313;28;20052;-76
2021/11/03 05:41:38;;;;;;;56.88;15.65;;;;;;;4.71;100.00;99715.88;5113413;28;20040;-77
2021/11/03 05:44:09;;;;;;;62.72;16.27;;;;;;;4.71;100.00;99718.53;5113428;28;20115;-77
2021/11/03 05:46:42;;;;;;;59.25;14.45;;;;;;;4.80;100.00;99720.75;5113173;28;20039;-77
2021/11/03 05:49:12;;;;;;;31.08;14.95;;;;;;;4.84;100.00;99714.44;5113158;28;20122;-75
2021/11/03 05:51:45;;;;;;;37.97;15.15;;;;;;;4.85;100.00;99708.22;5113183;28;20089;-75
2021/11/03 05:54:13;;;;;;;39.78;15.45;;;;;;;4.97;100.00;99709.44;5112876;28;20102;-75
2021/11/03 05:56:42;;;;;;;50.67;14.82;;;;;;;5.07;100.00;99706.28;5113320;28;20451;-75
2021/11/03 05:59:10;;;;;;;39.40;15.18;;;;;;;4.99;100.00;99724.28;5111704;28;20048;-75
2021/11/03 06:01:38;;;;;;;46.42;15.45;;;;;;;4.97;100.00;99720.00;5113411;28;20039;-74
2021/11/03 06:04:07;;;;;;;52.83;16.23;;;;;;;4.98;100.00;99725.22;5112696;28;20071;-75
2021/11/03 06:06:37;;;;;;;64.43;16.17;;;;;;;4.93;100.00;99729.88;5113000;28;20036;-75
2021/11/03 06:09:08;;;;;;;71.40;15.90;;;;;;;5.01;100.00;99727.72;5112654;28;20047;-76
2021/11/03 06:11:40;;;;;;;72.05;16.13;;;;;;;5.05;100.00;99737.25;5113078;28;20122;-75
2021/11/03 06:14:09;;;;;;;70.60;14.77;;;;;;;5.00;100.00;99736.56;5112496;28;20043;-75
2021/11/03 06:16:38;;;;;;;51.42;13.88;;;;;;;4.92;100.00;99735.19;5112628;28;20047;-75
2021/11/03 06:19:06;;;;;;;75.80;16.25;;;;;;;4.85;100.00;99732.84;5112080;28;20088;-75
2021/11/03 06:21:34;;;;;;;59.78;16.52;;;;;;;4.90;100.00;99751.13;5112722;28;20114;-75
2021/11/03 06:24:03;;;;;;;42.35;15.70;;;;;;;4.92;100.00;99741.34;5094262;28;20138;-75
2021/11/03 06:26:33;;;;;;;67.03;16.73;;;;;;;4.96;100.00;99745.59;5112440;28;20139;-75
2021/11/03 06:29:02;;;;;;;44.85;15.65;;;;;;;5.03;100.00;99741.75;5112453;28;20055;-76
2021/11/03 06:31:30;;;;;;;60.80;16.60;;;;;;;5.17;100.00;99735.81;5112603;28;20065;-75
2021/11/03 06:33:59;;;;;;;69.05;16.95;;;;;;;5.18;100.00;99740.16;5111917;28;20043;-74
2021/11/03 06:36:28;;;;;;;50.45;16.20;;;;;;;5.25;100.00;99740.75;5112536;28;20154;-74
2021/11/03 06:38:56;;;;;;;47.38;14.82;;;;;;;5.46;100.00;99745.03;5112159;28;20058;-82
2021/11/03 06:41:28;;;;;;;45.13;16.27;;;;;;;5.41;100.00;99744.41;5111958;28;20051;-74
2021/11/03 06:43:58;;;;;;;40.50;17.08;;;;;;;5.38;100.00;99755.09;5112444;28;20048;-75
2021/11/03 06:46:26;;;;;;;46.45;16.92;;;;;;;5.60;100.00;99753.19;5111984;28;20046;-75
2021/11/03 06:48:55;;;;;;;44.33;17.08;;;;;;;5.65;100.00;99760.88;5112168;28;20039;-73
2021/11/03 06:51:25;;;;;;;51.00;16.67;;;;;;;5.63;100.00;99763.63;5111808;28;20088;-75
2021/11/03 06:53:53;;;;;;;45.38;17.92;;;;;;;5.53;100.00;99767.63;5111830;28;20362;-75
2021/11/03 06:56:21;;;;;;;48.50;17.25;;;;;;;5.57;100.00;99763.03;5112046;28;20130;-75
2021/11/03 06:58:49;;;;;;;44.05;19.52;;;;;;;5.55;100.00;99768.41;5093699;28;20058;-74
2021/11/03 07:01:19;;;;;;;44.17;17.05;;;;;;;5.54;100.00;99768.47;5111819;28;20047;-76
2021/11/03 07:03:52;;;;;;;37.58;17.63;;;;;;;5.61;100.00;99770.78;5112039;28;20485;-75
2021/11/03 07:06:20;;;;;;;34.72;16.98;;;;;;;5.63;100.00;99774.19;5111942;28;20047;-78
2021/11/03 07:08:51;;;;;;;36.97;15.90;;;;;;;5.65;100.00;99772.31;5111567;28;20039;-77
2021/11/03 07:11:19;;;;;;;31.60;14.95;;;;;;;5.68;100.00;99780.09;5111459;28;20440;-76
2021/11/03 07:13:52;;;;;;;30.47;15.83;;;;;;;5.72;100.00;99776.41;5109353;28;20534;-75
2021/11/03 07:16:22;;;;;;;28.38;14.90;;;;;;;5.74;100.00;99777.19;5110933;28;20089;-74
2021/11/03 07:18:50;;;;;;;27.80;14.57;;;;;;;5.81;100.00;99777.75;5109114;28;20104;-76
2021/11/03 07:21:20;;;;;;;24.55;14.23;;;;;;;5.77;100.00;99767.38;5114128;28;20051;-77
2021/11/03 07:23:48;;;;;;;25.55;14.10;;;;;;;5.84;100.00;99771.44;5109048;28;20043;-77
2021/11/03 07:26:18;;;;;;;28.92;15.98;;;;;;;5.86;100.00;99772.22;5111715;28;20116;-78
2021/11/03 07:28:46;;;;;;;31.27;16.13;;;;;;;6.12;100.00;99771.84;5111146;28;20122;-80
2021/11/03 07:31:15;;;;;;;30.10;15.63;;;;;;;6.18;100.00;99760.09;5111156;28;20059;-80
2021/11/03 07:33:45;;;;;;;37.67;17.30;;;;;;;6.43;100.00;99775.59;5111713;28;20500;-79
2021/11/03 07:36:16;;;;;;;31.67;16.10;;;;;;;6.50;100.00;99779.66;5111391;28;20044;-76
2021/11/03 07:38:44;;;;;;;30.00;16.50;;;;;;;6.47;100.00;99778.03;5110961;28;20042;-76
2021/11/03 07:41:32;;;;;;;39.95;16.55;;;;;;;6.31;100.00;99787.69;5111518;28;20781;-82
2021/11/03 07:44:00;;;;;;;33.70;15.32;;;;;;;6.28;100.00;99788.72;5111667;28;20043;-81
2021/11/03 07:46:29;;;;;;;33.35;16.77;;;;;;;6.47;100.00;99788.63;5108743;28;20054;-74
2021/11/03 07:48:59;;;;;;;27.92;15.48;;;;;;;6.71;100.00;99796.25;5108011;28;20101;-71
2021/11/03 07:51:27;;;;;;;30.58;16.27;;;;;;;6.96;100.00;99785.25;5110521;28;20477;-73
2021/11/03 07:53:59;;;;;;;25.95;15.13;;;;;;;6.87;100.00;99786.59;5107886;28;20102;-76
2021/11/03 07:56:30;;;;;;;29.98;15.95;;;;;;;6.85;100.00;99789.31;5110505;28;20153;-73
2021/11/03 07:58:59;;;;;;;31.75;16.63;;;;;;;6.82;100.00;99789.47;5108206;28;20469;-72
2021/11/03 08:01:28;;;;;;;30.42;16.77;;;;;;;6.84;100.00;99792.88;5111059;28;20504;-73
2021/11/03 08:03:56;;;;;;;34.67;17.83;;;;;;;6.73;100.00;99789.94;5111303;28;20050;-76
2021/11/03 08:06:28;;;;;;;37.95;18.90;;;;;;;6.75;100.00;99782.75;5111223;28;20550;-76
2021/11/03 08:09:03;;;;;;;39.97;19.58;;;;;;;6.83;100.00;99787.66;5110810;28;20047;-76
2021/11/03 08:11:34;;;;;;;36.20;18.10;;;;;;;6.92;100.00;99788.97;5106968;28;20063;-75
2021/11/03 08:14:04;;;;;;;34.22;18.58;;;;;;;6.80;100.00;99794.00;5111302;28;20043;-75
2021/11/03 08:16:47;;;;;;;34.35;18.70;;;;;;;6.80;100.00;99796.63;5110479;28;20559;-75
2021/11/03 08:19:16;;;;;;;29.63;16.27;;;;;;;6.96;100.00;99790.56;5108999;28;20054;-74
2021/11/03 08:21:46;;;;;;;29.45;16.27;;;;;;;7.21;100.00;99787.44;5111506;28;20360;-76
2021/11/03 08:24:14;;;;;;;29.48;16.10;;;;;;;7.15;100.00;99791.28;5113918;28;20064;-71
2021/11/03 08:26:42;;;;;;;31.70;17.90;;;;;;;7.24;100.00;99790.81;5113642;28;20047;-74
2021/11/03 08:29:12;;;;;;;27.85;15.63;;;;;;;7.52;100.00;99783.97;5113334;28;20379;-71
2021/11/03 08:31:41;;;;;;;27.95;15.48;;;;;;;7.49;100.00;99785.00;5113783;28;20046;-72
2021/11/03 08:34:10;;;;;;;23.48;13.60;;;;;;;7.50;100.00;99785.84;5114231;28;20402;-71
2021/11/03 08:36:39;;;;;;;23.77;13.82;;;;;;;7.64;100.00;99772.69;5114377;28;20047;-75
2021/11/03 08:39:11;;;;;;;24.48;14.73;;;;;;;7.72;100.00;99781.06;5114087;28;20047;-76
2021/11/03 08:41:39;;;;;;;22.65;12.93;;;;;;;7.62;100.00;99774.56;5113782;28;20093;-73
2021/11/03 08:44:08;;;;;;;18.88;12.50;;;;;;;7.50;100.00;99769.94;5114255;28;20054;-72
2021/11/03 08:46:38;;;;;;;19.77;12.20;;;;;;;7.68;100.00;99768.91;5113886;28;20123;-71
2021/11/03 08:49:06;;;;;;;21.80;12.40;;;;;;;7.82;100.00;99762.84;5114023;28;20036;-71
2021/11/03 08:51:35;;;;;;;18.45;11.60;;;;;;;8.01;100.00;99760.84;5113391;28;20089;-72
2021/11/03 08:54:06;;;;;;;16.70;10.70;;;;;;;8.14;100.00;99750.38;5114058;28;20047;-70
2021/11/03 08:56:36;;;;;;;16.58;10.82;;;;;;;8.13;100.00;99748.66;5113929;28;20040;-73
2021/11/03 08:59:07;;;;;;;16.58;10.05;;;;;;;8.19;100.00;99745.63;5110825;28;20047;-72
2021/11/03 09:01:37;;;;;;;16.45;10.70;;;;;;;8.19;100.00;99737.66;5112990;28;20488;-72
2021/11/03 09:04:07;;;;;;;17.48;10.10;;;;;;;8.23;100.00;99741.88;5115402;28;20061;-71
2021/11/03 09:06:35;;;;;;;16.25;10.05;;;;;;;8.24;100.00;99736.47;5115378;28;20428;-71
2021/11/03 09:09:05;;;;;;;15.30;9.35;;;;;;;8.43;100.00;99746.88;5113392;28;20044;-73
2021/11/03 09:11:35;;;;;;;12.93;8.70;;;;;;;8.63;100.00;99747.50;5113323;28;20082;-73
2021/11/03 09:14:05;;;;;;;11.73;7.90;;;;;;;8.62;100.00;99743.13;5113265;28;20543;-72
2021/11/03 09:16:34;;;;;;;13.80;8.57;;;;;;;8.50;100.00;99744.72;5112925;28;20126;-71
2021/11/03 09:19:02;;;;;;;12.73;8.77;;;;;;;8.42;100.00;99744.34;5113516;28;20101;-73
2021/11/03 09:21:30;;;;;;;13.55;8.00;;;;;;;8.56;100.00;99745.19;5110407;28;20039;-75
2021/11/03 09:23:59;;;;;;;9.77;6.40;;;;;;;8.47;100.00;99752.88;5112879;28;20405;-71
2021/11/03 09:26:27;;;;;;;9.80;6.80;;;;;;;8.43;100.00;99746.88;5112551;28;20062;-71
2021/11/03 09:28:59;;;;;;;11.68;7.28;;;;;;;8.56;100.00;99747.00;5112617;28;20055;-70
2021/11/03 09:31:28;;;;;;;10.88;6.53;;;;;;;8.68;100.00;99745.41;5112542;28;20126;-73
2021/11/03 09:33:57;;;;;;;15.40;7.20;;;;;;;8.65;100.00;99740.28;5110326;28;20378;-71
2021/11/03 09:36:26;;;;;;;10.57;6.75;;;;;;;8.79;100.00;99748.31;5112457;28;20135;-78
2021/11/03 09:38:54;;;;;;;11.73;5.97;;;;;;;8.89;100.00;99744.13;5111544;28;20374;-73
2021/11/03 09:41:26;;;;;;;9.35;6.13;;;;;;;8.94;100.00;99744.69;5112604;28;20048;-75
2021/11/03 09:43:59;;;;;;;10.77;6.30;;;;;;;8.94;100.00;99747.34;5112917;28;20062;-75
2021/11/03 09:46:30;;;;;;;10.65;6.40;;;;;;;8.92;100.00;99743.06;5092171;28;20388;-73
2021/11/03 09:49:06;;;;;;;9.43;6.45;;;;;;;8.90;100.00;99737.84;5092696;28;20083;-72
2021/11/03 09:51:36;;;;;;;11.88;6.75;;;;;;;9.06;100.00;99735.94;5091093;28;20051;-73
2021/11/03 09:54:08;;;;;;;9.18;6.32;;;;;;;9.12;100.00;99724.94;5091612;28;20138;-75
2021/11/03 09:56:39;;;;;;;11.53;6.50;;;;;;;9.36;100.00;99726.97;5091865;28;20075;-73
2021/11/03 09:59:30;;;;;;;8.85;6.10;;;;;;;9.35;100.00;99733.25;5109520;28;20495;-72
2021/11/03 10:02:04;;;;;;;8.75;5.93;;;;;;;9.38;100.00;99723.28;5108766;28;20051;-74
2021/11/03 10:04:53;;;;;;;11.82;6.50;;;;;;;9.37;100.00;99718.94;5110472;28;20055;-75
2021/11/03 10:07:34;;;;;;;9.55;5.80;;;;;;;9.58;100.00;99724.69;5111428;28;20031;-76
2021/11/03 10:10:21;;;;;;;11.38;6.25;;;;;;;9.63;100.00;99721.72;5112138;28;20040;-72
2021/11/03 10:12:50;;;;;;;13.15;5.88;;;;;;;9.72;100.00;99713.97;5109321;28;20044;-72
2021/11/03 10:15:23;;;;;;;11.52;6.53;;;;;;;9.68;100.00;99701.81;5111737;28;20063;-72
2021/11/03 10:18:12;;;;;;;12.37;6.30;;;;;;;9.66;100.00;99700.22;5111627;28;20056;-73
2021/11/03 10:20:47;;;;;;;9.48;6.15;;;;;;;9.77;100.00;99705.69;5091841;28;20066;-71
2021/11/03 10:23:21;;;;;;;11.85;6.22;;;;;;;9.80;100.00;99700.16;5091857;28;20048;-72
2021/11/03 10:26:01;;;;;;;10.73;6.35;;;;;;;9.94;100.00;99707.22;5094306;28;20047;-72
2021/11/03 10:28:40;;;;;;;9.50;6.13;;;;;;;10.27;100.00;99706.84;5109849;28;20040;-76
2021/11/03 10:31:31;;;;;;;10.43;6.05;;;;;;;10.30;100.00;99704.81;5109384;28;20042;-72
2021/11/03 10:34:05;;;;;;;11.88;5.90;;;;;;;10.47;100.00;99697.50;5112314;28;20333;-71
2021/11/03 10:36:40;;;;;;;10.45;5.80;;;;;;;10.42;100.00;99691.59;5112075;28;20071;-75
2021/11/03 10:39:16;;;;;;;9.48;6.28;;;;;;;10.31;100.00;99695.84;5111793;28;20122;-73
2021/11/03 10:41:55;;;;;;;10.40;6.57;;;;;;;10.25;100.00;99690.09;5111276;28;20065;-75
2021/11/03 10:44:27;;;;;;;9.10;6.45;;;;;;;10.29;100.00;99679.13;5110200;28;20049;-72
2021/11/03 10:47:09;;;;;;;14.73;7.82;;;;;;;10.27;100.00;99683.69;5106097;28;20167;-68
2021/11/03 10:49:51;;;;;;;10.38;7.25;;;;;;;10.38;100.00;99664.31;5110812;28;20040;-69
2021/11/03 10:52:23;;;;;;;9.83;6.80;;;;;;;10.37;100.00;99669.75;5111749;28;20047;-67
2021/11/03 10:54:57;;;;;;;14.00;7.97;;;;;;;10.43;100.00;99666.69;5111373;28;20447;-69
2021/11/03 10:57:35;;;;;;;10.30;7.43;;;;;;;10.46;100.00;99666.44;5111449;28;20139;-69
2021/11/03 11:00:21;;;;;;;11.98;7.35;;;;;;;10.52;100.00;99676.72;5110582;28;20107;-71
2021/11/03 11:02:56;;;;;;;11.98;7.35;;;;;;;10.51;100.00;99669.63;5108103;28;20097;-69
2021/11/03 11:05:26;;;;;;;11.10;7.45;;;;;;;10.52;100.00;99666.88;5111515;28;20123;-67
2021/11/03 11:07:59;;;;;;;11.80;7.25;;;;;;;10.57;100.00;99671.88;5111241;28;20048;-70
2021/11/03 11:10:37;;;;;;;11.30;7.65;;;;;;;10.60;100.00;99664.53;5110747;28;20058;-68
2021/11/03 11:13:13;;;;;;;11.57;7.45;;;;;;;10.59;100.00;99653.97;5111575;28;20046;-69
2021/11/03 11:15:55;;;;;;;10.27;7.28;;;;;;;10.60;100.00;99639.66;5110701;28;20492;-69
2021/11/03 11:18:58;;;;;;;11.25;6.80;;;;;;;10.53;100.00;99641.06;5110233;28;20052;-69
2021/11/03 11:21:41;;;;;;;11.57;7.32;;;;;;;10.56;100.00;99647.03;5111218;28;20051;-69
2021/11/03 11:24:18;;;;;;;11.88;7.72;;;;;;;10.63;100.00;99639.47;5110618;28;20119;-68
2021/11/03 11:26:55;;;;;;;16.20;9.07;;;;;;;10.69;100.00;99641.69;5105650;28;20112;-69
2021/11/03 11:29:30;;;;;;;13.15;8.73;;;;;;;10.80;100.00;99647.13;5105463;28;20055;-69
2021/11/03 11:32:05;;;;;;;12.02;8.38;;;;;;;10.75;100.00;99648.41;5111628;28;20104;-67
2021/11/03 11:34:54;;;;;;;10.90;7.93;;;;;;;10.62;100.00;99645.78;5111386;28;20055;-69
2021/11/03 11:37:32;;;;;;;11.95;8.15;;;;;;;10.70;100.00;99638.06;5111490;28;20450;-69
2021/11/03 11:40:17;;;;;;;8.93;6.22;;;;;;;10.72;100.00;99638.81;5111094;28;20063;-73